Time;durP1;ratioP1;P1;durP2;ratioP2;P2;SDS_P1;SDS_P2;PMS_P1;PMS_P2;Temp;Humidity;BMP_temperature;BMP_pressure;BME280_temperature;BME280_humidity;BME280_pressure;Samples;Min_cycle;Max_cycle;Signal;HPM_P1;HPM_P2
2023/05/02 00:02:09;;;;;;;0.80;0.80;;;;;;;0.88;81.71;99735.19;6213574;23;20024;-79
2023/05/02 00:04:36;;;;;;;0.80;0.80;;;;;;;0.89;81.57;99739.50;6213071;23;20067;-79
2023/05/02 00:07:03;;;;;;;0.90;0.90;;;;;;;0.81;81.67;99735.88;6213296;23;20132;-79
2023/05/02 00:09:30;;;;;;;0.90;0.90;;;;;;;0.76;81.83;99737.34;6213119;23;20052;-79
2023/05/02 00:11:57;;;;;;;0.80;0.80;;;;;;;0.76;82.24;99753.28;6212931;23;20051;-79
2023/05/02 00:14:24;;;;;;;0.77;0.77;;;;;;;0.75;82.12;99754.28;6186371;23;20537;-79
2023/05/02 00:16:52;;;;;;;0.90;0.90;;;;;;;0.74;82.22;99758.78;6212844;23;20055;-79
2023/05/02 00:19:19;;;;;;;0.80;0.80;;;;;;;0.65;82.18;99752.59;6212353;23;20067;-80
2023/05/02 00:21:48;;;;;;;0.90;0.90;;;;;;;0.60;82.49;99751.41;6186820;23;20403;-79
2023/05/02 00:24:17;;;;;;;0.85;0.85;;;;;;;0.63;82.75;99759.06;6187133;23;20030;-79
2023/05/02 00:26:45;;;;;;;0.82;0.82;;;;;;;0.59;82.64;99761.22;6186645;23;20025;-79
2023/05/02 00:29:12;;;;;;;0.85;0.85;;;;;;;0.67;82.77;99771.03;6213223;23;20052;-80
2023/05/02 00:31:41;;;;;;;0.90;0.90;;;;;;;0.68;82.62;99777.19;6212863;23;20020;-79
2023/05/02 00:34:13;;;;;;;0.90;0.90;;;;;;;0.67;82.65;99778.19;6187902;23;20028;-79
2023/05/02 00:36:41;;;;;;;0.80;0.80;;;;;;;0.62;82.81;99781.31;6213180;23;20026;-77
2023/05/02 00:39:08;;;;;;;0.80;0.80;;;;;;;0.56;83.06;99777.47;6186961;23;20020;-79
2023/05/02 00:41:36;;;;;;;0.90;0.90;;;;;;;0.57;83.17;99773.81;6186242;23;20024;-78
2023/05/02 00:44:03;;;;;;;0.90;0.90;;;;;;;0.56;82.97;99776.66;6212981;23;20039;-78
2023/05/02 00:46:30;;;;;;;0.90;0.90;;;;;;;0.63;83.19;99786.47;6212906;23;20024;-78
2023/05/02 00:48:57;;;;;;;0.73;0.73;;;;;;;0.62;82.74;99783.97;6212956;23;20024;-78
2023/05/02 00:51:26;;;;;;;0.80;0.80;;;;;;;0.50;83.21;99787.91;6212805;23;20016;-79
2023/05/02 00:53:53;;;;;;;0.90;0.90;;;;;;;0.48;83.32;99795.19;6212824;23;20024;-78
2023/05/02 00:56:20;;;;;;;1.00;1.00;;;;;;;0.43;83.29;99799.19;6186145;23;20016;-78
2023/05/02 00:58:47;;;;;;;0.80;0.80;;;;;;;0.32;83.89;99795.97;6186826;23;20333;-78
2023/05/02 01:01:36;;;;;;;0.98;0.98;;;;;;;0.31;83.99;99800.44;6186540;23;20036;-78
2023/05/02 01:04:21;;;;;;;0.85;0.85;;;;;;;0.28;84.23;99803.44;6200533;23;20058;-78
2023/05/02 01:07:05;;;;;;;0.90;0.90;;;;;;;0.19;84.42;99807.03;6161971;23;20455;-78
2023/05/02 01:10:17;;;;;;;0.90;0.90;;;;;;;0.06;84.93;99809.28;6212759;23;20028;-79
2023/05/02 01:13:28;;;;;;;0.90;0.90;;;;;;;0.05;85.87;99816.41;6095951;23;20030;-79
2023/05/02 01:15:57;;;;;;;0.85;0.85;;;;;;;-0.08;85.54;99819.47;6033758;23;20056;-78
2023/05/02 01:18:29;;;;;;;0.90;0.90;;;;;;;-0.15;86.07;99823.75;6010042;23;20108;-79
2023/05/02 01:21:09;;;;;;;0.90;0.90;;;;;;;-0.28;86.73;99821.50;6010450;23;20349;-78
2023/05/02 01:24:00;;;;;;;0.90;0.90;;;;;;;-0.34;86.89;99816.81;5986623;23;20447;-79
2023/05/02 01:26:42;;;;;;;0.90;0.90;;;;;;;-0.47;87.59;99822.50;6026992;23;20031;-79
2023/05/02 01:29:10;;;;;;;0.80;0.80;;;;;;;-0.65;88.16;99816.41;5982647;23;20052;-78
2023/05/02 01:31:43;;;;;;;0.85;0.85;;;;;;;-0.56;88.28;99822.59;6010134;23;20031;-78
2023/05/02 01:34:21;;;;;;;0.80;0.80;;;;;;;-0.57;88.69;99832.38;5988307;23;20136;-79
2023/05/02 01:36:50;;;;;;;0.90;0.90;;;;;;;-0.63;89.01;99835.63;6010085;23;20050;-78
2023/05/02 01:39:21;;;;;;;0.80;0.80;;;;;;;-0.73;89.26;99843.66;6009794;23;20027;-79
2023/05/02 01:41:53;;;;;;;0.90;0.90;;;;;;;-0.79;89.55;99849.56;6033777;23;20023;-79
2023/05/02 01:44:21;;;;;;;0.80;0.80;;;;;;;-0.89;89.98;99839.03;6057779;23;20473;-79
2023/05/02 01:46:50;;;;;;;0.90;0.90;;;;;;;-0.91;90.31;99853.44;6091077;23;20032;-79
2023/05/02 01:49:18;;;;;;;0.98;0.98;;;;;;;-0.95;90.80;99855.53;6067311;23;20509;-79
2023/05/02 01:51:47;;;;;;;0.82;0.82;;;;;;;-0.96;91.23;99855.66;6113828;23;20020;-78
2023/05/02 01:54:16;;;;;;;0.90;0.90;;;;;;;-0.99;91.30;99854.16;6186354;23;20025;-78
2023/05/02 01:56:45;;;;;;;0.90;0.90;;;;;;;-0.98;91.48;99860.31;6161434;23;20032;-79
2023/05/02 01:59:16;;;;;;;0.90;0.90;;;;;;;-1.02;91.69;99870.34;6186793;23;20029;-79
2023/05/02 02:01:44;;;;;;;0.88;0.88;;;;;;;-1.00;92.05;99872.88;6161466;23;20024;-78
2023/05/02 02:04:21;;;;;;;0.80;0.80;;;;;;;-1.09;92.23;99858.66;6190503;23;20444;-77
2023/05/02 02:07:04;;;;;;;0.90;0.90;;;;;;;-1.04;92.41;99879.44;6188635;23;20043;-77
2023/05/02 02:09:34;;;;;;;0.90;0.90;;;;;;;-1.04;92.78;99880.25;6187755;23;20035;-79
2023/05/02 02:12:08;;;;;;;0.85;0.85;;;;;;;-0.98;92.72;99886.81;6214431;23;20020;-79
2023/05/02 02:14:37;;;;;;;1.00;1.00;;;;;;;-0.99;92.86;99893.06;6187734;23;20034;-78
2023/05/02 02:17:14;;;;;;;0.85;0.85;;;;;;;-0.93;93.03;99897.78;6163541;23;20384;-78
2023/05/02 02:19:43;;;;;;;0.90;0.90;;;;;;;-0.89;93.40;99902.66;6187859;23;20052;-78
2023/05/02 02:22:12;;;;;;;1.00;1.00;;;;;;;-0.87;93.26;99905.97;6188476;23;20024;-78
2023/05/02 02:24:40;;;;;;;0.80;0.80;;;;;;;-0.86;93.43;99906.81;6187797;23;20020;-78
2023/05/02 02:27:07;;;;;;;1.00;1.00;;;;;;;-0.87;93.57;99902.47;6214466;23;20024;-79
2023/05/02 02:29:34;;;;;;;0.80;0.80;;;;;;;-0.84;93.60;99909.31;6214022;23;20021;-78
2023/05/02 02:32:02;;;;;;;0.90;0.90;;;;;;;-0.82;93.67;99910.81;6138659;23;20048;-77
2023/05/02 02:34:29;;;;;;;0.80;0.80;;;;;;;-0.78;93.80;99921.97;6213881;23;20028;-78
2023/05/02 02:37:00;;;;;;;0.90;0.90;;;;;;;-0.79;93.65;99910.50;6163261;23;20115;-79
2023/05/02 02:39:42;;;;;;;0.90;0.90;;;;;;;-0.74;93.86;99918.84;6186941;23;20031;-78
2023/05/02 02:42:42;;;;;;;0.90;0.90;;;;;;;-0.69;93.85;99910.47;6187483;23;20459;-79
2023/05/02 02:45:37;;;;;;;0.90;0.90;;;;;;;-0.68;93.63;99920.94;6130053;23;20051;-79
2023/05/02 02:48:31;;;;;;;1.00;1.00;;;;;;;-0.59;93.91;99919.19;6214272;23;20024;-79
2023/05/02 02:51:34;;;;;;;0.90;0.90;;;;;;;-0.49;93.60;99921.75;6212588;23;20063;-78
2023/05/02 02:54:21;;;;;;;0.90;0.90;;;;;;;-0.34;93.47;99928.22;6097216;23;20785;-78
2023/05/02 02:57:03;;;;;;;0.90;0.90;;;;;;;-0.27;93.19;99921.31;6122070;23;20353;-78
2023/05/02 02:59:36;;;;;;;0.93;0.93;;;;;;;-0.15;93.25;99937.84;6121498;23;20032;-78
2023/05/02 03:02:08;;;;;;;1.00;1.00;;;;;;;-0.07;93.10;99939.72;6073624;23;20026;-78
2023/05/02 03:04:38;;;;;;;0.90;0.90;;;;;;;0.05;92.75;99935.00;6121735;23;20026;-79
2023/05/02 03:07:06;;;;;;;0.90;0.90;;;;;;;0.14;92.45;99936.75;6086448;23;20022;-78
2023/05/02 03:09:44;;;;;;;0.90;0.90;;;;;;;0.26;92.26;99938.16;6097076;23;20532;-77
2023/05/02 03:12:16;;;;;;;0.90;0.90;;;;;;;0.33;92.02;99943.66;6096717;23;20021;-78
2023/05/02 03:14:44;;;;;;;0.80;0.80;;;;;;;0.39;91.67;99941.22;6120980;23;20381;-79
2023/05/02 03:17:12;;;;;;;0.80;0.80;;;;;;;0.40;91.44;99937.56;6096907;23;20026;-78
2023/05/02 03:19:40;;;;;;;1.00;1.00;;;;;;;0.49;91.23;99950.94;6073415;23;20022;-78
2023/05/02 03:22:07;;;;;;;0.98;0.98;;;;;;;0.57;91.10;99953.63;6096845;23;20026;-78
2023/05/02 03:24:39;;;;;;;0.90;0.90;;;;;;;0.64;90.57;99949.38;6096753;23;20017;-78
2023/05/02 03:27:07;;;;;;;0.90;0.90;;;;;;;0.65;90.35;99937.72;6045105;23;20030;-78
2023/05/02 03:29:40;;;;;;;0.80;0.80;;;;;;;0.86;89.82;99959.44;6137182;23;20020;-78
2023/05/02 03:32:10;;;;;;;1.00;1.00;;;;;;;0.96;89.52;99966.47;6187120;23;20023;-78
2023/05/02 03:34:40;;;;;;;0.80;0.80;;;;;;;1.07;89.25;99966.19;6187230;23;20415;-78
2023/05/02 03:37:08;;;;;;;0.93;0.93;;;;;;;1.22;88.60;99971.75;6186945;23;20021;-79
2023/05/02 03:39:35;;;;;;;0.88;0.88;;;;;;;1.33;88.28;99982.06;6186682;23;20024;-79
2023/05/02 03:42:05;;;;;;;0.90;0.90;;;;;;;1.44;87.90;99978.28;6201597;23;20016;-78
2023/05/02 03:44:32;;;;;;;0.90;0.90;;;;;;;1.59;87.32;99983.81;6187125;23;20024;-78
2023/05/02 03:46:59;;;;;;;0.90;0.90;;;;;;;1.72;86.80;99985.03;6162103;23;20030;-79
2023/05/02 03:49:27;;;;;;;1.00;1.00;;;;;;;1.89;86.17;99993.03;6186714;23;20094;-78
2023/05/02 03:51:55;;;;;;;0.80;0.80;;;;;;;1.99;85.63;99987.56;6186716;23;20047;-80
2023/05/02 03:54:31;;;;;;;0.88;0.88;;;;;;;2.04;85.51;99995.88;6186446;23;20103;-79
2023/05/02 03:56:59;;;;;;;1.00;1.00;;;;;;;2.16;85.22;99990.06;6161462;23;20070;-80
2023/05/02 03:59:34;;;;;;;1.00;1.00;;;;;;;2.25;84.90;99990.06;6185968;23;20020;-79
2023/05/02 04:02:10;;;;;;;0.90;0.90;;;;;;;2.39;84.41;99998.22;6161975;23;20322;-79
2023/05/02 04:04:44;;;;;;;0.90;0.90;;;;;;;2.55;84.26;100001.84;6212801;23;20044;-80
2023/05/02 04:07:18;;;;;;;1.00;1.00;;;;;;;2.62;84.20;100000.19;6186442;23;20083;-78
2023/05/02 04:09:56;;;;;;;0.82;0.82;;;;;;;2.74;83.64;100006.00;6186196;23;20046;-79
2023/05/02 04:12:26;;;;;;;0.90;0.90;;;;;;;2.82;83.16;100004.16;6186672;23;20152;-81
2023/05/02 04:14:54;;;;;;;0.90;0.90;;;;;;;2.91;82.69;100010.31;6186597;23;20052;-80
2023/05/02 04:17:26;;;;;;;0.90;0.90;;;;;;;3.01;82.45;100015.44;6185599;23;20028;-80
2023/05/02 04:19:53;;;;;;;1.00;1.00;;;;;;;3.16;81.92;100015.56;6184693;23;20104;-80
2023/05/02 04:22:26;;;;;;;0.90;0.90;;;;;;;3.36;81.05;100008.81;6135900;23;20076;-80
2023/05/02 04:25:03;;;;;;;0.88;0.88;;;;;;;3.51;80.64;100010.75;6184596;23;20111;-81
2023/05/02 04:27:33;;;;;;;1.00;1.00;;;;;;;3.64;80.02;100013.69;6159229;23;20024;-80
2023/05/02 04:30:00;;;;;;;0.80;0.80;;;;;;;3.80;79.71;100010.94;6184493;23;20103;-81
2023/05/02 04:32:30;;;;;;;0.90;0.90;;;;;;;3.95;79.29;100028.88;6211087;23;20020;-80
2023/05/02 04:34:59;;;;;;;0.90;0.90;;;;;;;4.03;78.80;100015.47;6183519;23;20032;-79
2023/05/02 04:37:32;;;;;;;0.80;0.80;;;;;;;4.16;78.37;100021.06;6183588;23;20031;-79
2023/05/02 04:39:59;;;;;;;0.90;0.90;;;;;;;4.28;77.66;100030.31;6182894;23;20024;-79
2023/05/02 04:42:33;;;;;;;0.90;0.90;;;;;;;4.42;77.10;100030.56;6182832;23;20467;-79
2023/05/02 04:45:14;;;;;;;0.80;0.80;;;;;;;4.64;76.46;100031.53;6183885;23;20024;-81
2023/05/02 04:47:43;;;;;;;0.80;0.80;;;;;;;4.80;75.44;100036.72;6160457;23;20391;-81
2023/05/02 04:50:10;;;;;;;0.90;0.90;;;;;;;4.92;74.79;100021.06;6210580;23;20044;-81
2023/05/02 04:52:37;;;;;;;0.82;0.82;;;;;;;5.09;74.43;100035.94;6184692;23;20028;-81
2023/05/02 04:55:05;;;;;;;0.80;0.80;;;;;;;5.24;73.96;100040.44;6184277;23;20035;-80
2023/05/02 04:57:33;;;;;;;0.90;0.90;;;;;;;5.31;73.36;100041.38;6159588;23;20031;-79
2023/05/02 05:00:02;;;;;;;0.80;0.80;;;;;;;5.41;72.60;100032.03;6210608;23;20099;-79
2023/05/02 05:02:33;;;;;;;0.80;0.80;;;;;;;5.55;71.81;100038.41;6159936;23;20095;-79
2023/05/02 05:05:02;;;;;;;0.80;0.80;;;;;;;5.67;71.44;100036.06;6159662;23;20041;-80
2023/05/02 05:07:31;;;;;;;0.80;0.80;;;;;;;5.73;71.38;100050.59;6210662;23;20021;-78
2023/05/02 05:09:59;;;;;;;0.80;0.80;;;;;;;5.85;70.72;100043.72;6185126;23;20024;-81
2023/05/02 05:12:32;;;;;;;0.70;0.70;;;;;;;5.86;70.44;100035.50;6158941;23;20021;-79
2023/05/02 05:15:01;;;;;;;0.88;0.88;;;;;;;6.02;69.60;100042.50;6210372;23;20044;-79
2023/05/02 05:17:32;;;;;;;0.80;0.80;;;;;;;6.27;69.45;100047.50;6209630;23;20355;-81
2023/05/02 05:20:01;;;;;;;0.80;0.80;;;;;;;6.38;67.71;100030.91;6071560;23;2661174;-82
2023/05/02 05:22:30;;;;;;;0.80;0.80;;;;;;;6.56;64.68;100040.34;6185631;23;20021;-82
2023/05/02 05:24:57;;;;;;;0.77;0.77;;;;;;;6.66;64.27;100051.56;6185313;23;20024;-80
2023/05/02 05:27:31;;;;;;;0.80;0.80;;;;;;;6.80;64.71;100052.50;6184686;23;20047;-81
2023/05/02 05:30:07;;;;;;;0.80;0.80;;;;;;;6.83;64.13;100042.22;6169108;23;20079;-81
2023/05/02 05:32:37;;;;;;;0.70;0.70;;;;;;;6.94;64.18;100046.22;6155474;23;20399;-81
2023/05/02 05:35:05;;;;;;;0.70;0.70;;;;;;;7.06;63.70;100035.75;6180967;23;20031;-81
2023/05/02 05:37:38;;;;;;;0.70;0.70;;;;;;;7.27;62.32;100049.13;6180653;23;20024;-78
2023/05/02 05:40:08;;;;;;;0.80;0.80;;;;;;;7.40;61.13;100048.38;6131433;23;20024;-79
2023/05/02 05:42:36;;;;;;;0.70;0.70;;;;;;;7.51;60.23;100049.66;6206189;23;20020;-80
2023/05/02 05:45:12;;;;;;;0.73;0.73;;;;;;;7.64;59.41;100051.59;6181301;23;20359;-81
2023/05/02 05:47:43;;;;;;;0.70;0.70;;;;;;;7.69;58.97;100041.06;6206571;23;20644;-81
2023/05/02 05:50:16;;;;;;;0.70;0.70;;;;;;;7.84;56.22;100038.25;6207705;23;20509;-81
2023/05/02 05:52:52;;;;;;;0.70;0.70;;;;;;;8.04;55.67;100055.25;6157797;23;20029;-79
2023/05/02 05:55:19;;;;;;;0.70;0.70;;;;;;;8.06;53.48;100042.44;6181169;23;20526;-78
2023/05/02 05:57:49;;;;;;;0.70;0.70;;;;;;;8.09;52.74;100039.34;6207929;23;20032;-79
2023/05/02 06:00:16;;;;;;;0.70;0.70;;;;;;;8.08;53.08;100032.31;6181238;23;20035;-80
2023/05/02 06:02:47;;;;;;;0.70;0.70;;;;;;;8.25;52.50;100048.88;6156715;23;20033;-80
2023/05/02 06:05:26;;;;;;;0.70;0.70;;;;;;;8.37;52.75;100038.38;6179983;23;20025;-83
2023/05/02 06:07:54;;;;;;;0.70;0.70;;;;;;;8.30;50.04;100043.72;6181534;23;20403;-81
2023/05/02 06:10:22;;;;;;;0.70;0.70;;;;;;;8.38;48.54;100050.78;6161017;23;20024;-81
2023/05/02 06:12:53;;;;;;;0.80;0.80;;;;;;;8.37;48.61;100033.81;6160477;23;20048;-83
2023/05/02 06:15:25;;;;;;;;;;;;;;;8.58;49.35;100042.75;6187498;23;20024;-86
2023/05/02 06:17:54;;;;;;;0.80;0.80;;;;;;;8.73;50.50;100043.38;6186529;23;19923;-81
2023/05/02 06:20:21;;;;;;;0.70;0.70;;;;;;;8.82;48.51;100046.72;6183827;23;20020;-82
2023/05/02 06:22:51;;;;;;;0.70;0.70;;;;;;;8.75;45.38;100038.63;6185755;23;20409;-85
2023/05/02 06:25:23;;;;;;;0.80;0.80;;;;;;;8.80;46.81;100040.69;6164251;23;20025;-90
2023/05/02 06:28:37;;;;;;;0.80;0.80;;;;;;;8.91;48.78;100042.75;6186061;23;20020;31
2023/05/02 06:31:07;;;;;;;0.70;0.70;;;;;;;9.20;48.23;100056.81;6124525;23;20018;-90
2023/05/02 06:33:35;;;;;;;0.60;0.60;;;;;;;9.45;47.01;100048.91;6097881;23;20065;-83
2023/05/02 17:52:05;;;;;;;0.20;0.20;;;;;;;18.34;26.95;99688.22;5062557;28;20388;-86
2023/05/02 17:54:33;;;;;;;0.20;0.20;;;;;;;15.41;29.50;99689.66;5049005;28;20049;-87
2023/05/02 17:57:03;;;;;;;0.30;0.30;;;;;;;13.69;31.47;99670.00;5372434;22;20065;-82
2023/05/02 17:59:35;;;;;;;0.30;0.30;;;;;;;12.94;32.69;99687.47;4968808;28;20128;-76
2023/05/02 18:02:02;;;;;;;0.30;0.30;;;;;;;12.46;33.61;99699.56;4976861;28;20075;-76
2023/05/02 18:04:30;;;;;;;0.30;0.30;;;;;;;12.15;33.93;99693.47;4984711;28;20141;-77
2023/05/02 18:06:57;;;;;;;0.40;0.40;;;;;;;11.82;34.38;99689.47;4986296;28;20046;-76
2023/05/02 18:09:24;;;;;;;0.40;0.40;;;;;;;11.67;34.63;99691.84;4964286;28;20054;-76
2023/05/02 18:11:52;;;;;;;0.40;0.40;;;;;;;11.52;34.79;99689.63;4949469;28;20154;-76
2023/05/02 18:14:22;;;;;;;0.40;0.40;;;;;;;11.39;34.96;99677.13;4975005;28;20050;-76
2023/05/02 18:16:52;;;;;;;0.40;0.40;;;;;;;11.35;35.14;99683.25;4997788;28;20051;-76
2023/05/02 18:19:19;;;;;;;0.45;0.45;;;;;;;11.33;35.15;99674.56;4984736;28;20097;-76
2023/05/02 18:21:46;;;;;;;0.40;0.40;;;;;;;11.25;35.15;99676.53;4985071;28;20058;-77
2023/05/02 18:24:13;;;;;;;0.40;0.40;;;;;;;11.16;35.54;99680.63;4983651;28;20051;-77
2023/05/02 18:26:40;;;;;;;0.40;0.40;;;;;;;11.11;35.52;99671.56;4986926;28;20051;-76
2023/05/02 18:29:08;;;;;;;0.40;0.40;;;;;;;10.94;36.13;99682.19;4986485;28;20054;-78
2023/05/02 18:31:38;;;;;;;0.40;0.40;;;;;;;11.00;36.16;99682.09;5001404;28;20516;-77
2023/05/02 18:34:07;;;;;;;0.40;0.40;;;;;;;11.07;36.11;99671.22;4980885;28;20059;-77
2023/05/02 18:36:38;;;;;;;0.40;0.40;;;;;;;10.95;36.27;99671.19;4970165;28;20047;-76
2023/05/02 18:39:08;;;;;;;0.40;0.40;;;;;;;10.88;36.47;99678.53;4984426;28;20086;-75
2023/05/02 18:41:35;;;;;;;0.50;0.50;;;;;;;10.74;36.68;99667.13;4992769;28;20058;-77
2023/05/02 18:44:06;;;;;;;0.50;0.50;;;;;;;10.73;36.63;99676.25;4979651;28;20159;-76
2023/05/02 18:46:34;;;;;;;0.50;0.50;;;;;;;10.67;36.95;99679.06;4984952;28;20509;-76
2023/05/02 18:49:01;;;;;;;0.50;0.50;;;;;;;10.65;37.05;99678.47;4987074;28;20055;-76
2023/05/02 18:51:29;;;;;;;0.50;0.50;;;;;;;10.61;37.25;99680.81;4985931;28;20077;-76
2023/05/02 18:53:59;;;;;;;0.50;0.50;;;;;;;10.45;37.83;99676.03;4981887;28;20085;-76
2023/05/02 18:56:27;;;;;;;0.40;0.40;;;;;;;10.27;37.75;99688.44;4984134;28;20141;-76
2023/05/02 18:58:55;;;;;;;0.50;0.50;;;;;;;10.14;38.53;99680.53;4996252;28;20069;-77
2023/05/02 19:01:23;;;;;;;0.50;0.50;;;;;;;10.05;38.60;99680.00;4985068;28;20054;-76
2023/05/02 19:04:00;;;;;;;0.52;0.52;;;;;;;9.97;38.60;99672.19;4947164;28;20425;-76
2023/05/02 19:06:28;;;;;;;0.50;0.50;;;;;;;10.01;38.76;99678.81;4986747;28;20047;-75
2023/05/02 19:08:58;;;;;;;0.50;0.50;;;;;;;10.01;38.72;99669.91;4983914;28;20050;-77
2023/05/02 19:11:25;;;;;;;0.60;0.60;;;;;;;9.89;39.27;99672.50;4982889;28;20611;-76
2023/05/02 19:14:00;;;;;;;0.50;0.50;;;;;;;9.79;39.63;99672.19;4964322;28;20105;-76
2023/05/02 19:16:27;;;;;;;0.50;0.50;;;;;;;9.70;39.57;99667.09;4984623;28;20055;-75
2023/05/02 19:18:55;;;;;;;0.50;0.50;;;;;;;9.65;39.85;99675.03;4964810;28;20082;-76
2023/05/02 19:21:23;;;;;;;0.50;0.50;;;;;;;9.59;40.07;99665.13;4970041;28;20591;-76
2023/05/02 19:23:51;;;;;;;0.50;0.50;;;;;;;9.60;40.12;99672.16;4974781;28;20141;-75
2023/05/02 19:26:28;;;;;;;0.50;0.50;;;;;;;9.51;39.99;99660.84;4985574;28;20050;-77
2023/05/02 19:28:58;;;;;;;0.50;0.50;;;;;;;9.51;40.23;99660.84;4978927;28;20058;-76
2023/05/02 19:31:25;;;;;;;0.40;0.40;;;;;;;9.50;40.06;99656.50;4974740;28;20051;-77
2023/05/02 19:33:55;;;;;;;0.50;0.50;;;;;;;9.44;40.63;99656.56;4981892;28;20441;-76
2023/05/02 19:36:23;;;;;;;0.50;0.50;;;;;;;9.33;40.63;99653.53;4981359;28;20053;-76
2023/05/02 19:38:52;;;;;;;0.50;0.50;;;;;;;9.24;40.79;99641.41;4981911;28;20056;-76
2023/05/02 19:41:21;;;;;;;0.50;0.50;;;;;;;9.21;40.93;99657.16;4979523;28;20125;-76
2023/05/02 19:43:51;;;;;;;0.50;0.50;;;;;;;9.10;41.37;99646.06;4981262;28;20078;-76
2023/05/02 19:46:18;;;;;;;0.50;0.50;;;;;;;9.14;41.38;99649.16;4976598;28;20569;-76
2023/05/02 19:48:46;;;;;;;0.50;0.50;;;;;;;9.00;41.63;99643.03;4970769;28;20554;-77
2023/05/02 19:51:14;;;;;;;0.50;0.50;;;;;;;8.96;41.79;99647.19;4981650;28;20050;-76
2023/05/02 19:53:46;;;;;;;0.50;0.50;;;;;;;8.97;41.79;99639.97;4980625;28;20101;-76
2023/05/02 19:56:13;;;;;;;0.50;0.50;;;;;;;8.84;41.99;99646.28;4989476;28;20141;-77
2023/05/02 19:58:40;;;;;;;0.60;0.60;;;;;;;8.86;41.94;99639.63;4991357;28;20066;-75
2023/05/02 20:01:07;;;;;;;0.60;0.60;;;;;;;8.86;42.10;99633.41;4991923;28;20064;-76
2023/05/02 20:03:34;;;;;;;0.50;0.50;;;;;;;8.75;42.13;99639.50;4990937;28;20398;-75
2023/05/02 20:06:11;;;;;;;0.50;0.50;;;;;;;8.72;42.26;99635.38;4991678;28;20046;-75
2023/05/02 20:11:26;;;;;;;0.50;0.50;;;;;;;8.58;42.65;99629.25;4991494;28;20061;-75
2023/05/02 20:13:53;;;;;;;0.60;0.60;;;;;;;8.53;42.67;99625.53;4990581;28;20114;-76
2023/05/02 20:16:20;;;;;;;0.50;0.50;;;;;;;8.48;43.09;99625.38;4991463;28;20092;-75
2023/05/02 20:18:48;;;;;;;0.50;0.50;;;;;;;8.46;43.05;99622.91;4991821;28;20050;-75
2023/05/02 20:21:17;;;;;;;0.50;0.50;;;;;;;8.42;43.36;99625.19;4991172;28;20054;-76
2023/05/02 20:23:45;;;;;;;0.50;0.50;;;;;;;8.38;43.48;99626.66;4991191;28;20077;-76
2023/05/02 20:26:14;;;;;;;0.50;0.50;;;;;;;8.32;43.52;99626.66;4958066;28;20064;-76
2023/05/02 20:28:44;;;;;;;0.55;0.55;;;;;;;8.31;43.75;99630.41;4970428;28;20473;-76
2023/05/02 20:31:15;;;;;;;0.50;0.50;;;;;;;8.19;44.13;99623.00;4980458;28;20058;-75
2023/05/02 20:34:01;;;;;;;0.50;0.50;;;;;;;8.02;43.96;99605.69;4990590;28;20097;-75
2023/05/02 20:36:29;;;;;;;0.50;0.50;;;;;;;8.03;44.26;99634.25;4990411;28;20050;-76
2023/05/02 20:38:57;;;;;;;0.50;0.50;;;;;;;8.01;44.57;99614.81;4989644;28;20050;-75
2023/05/02 20:41:26;;;;;;;0.50;0.50;;;;;;;7.97;44.63;99608.19;4980666;28;20077;-75
2023/05/02 20:43:53;;;;;;;0.50;0.50;;;;;;;7.99;44.81;99617.69;4990820;28;20054;-76
2023/05/02 20:46:23;;;;;;;0.50;0.50;;;;;;;7.93;44.69;99605.13;4989793;28;20052;-75
2023/05/02 20:48:51;;;;;;;0.50;0.50;;;;;;;7.92;44.81;99605.31;4991108;28;20535;-75
2023/05/02 20:51:23;;;;;;;0.50;0.50;;;;;;;7.95;44.86;99602.19;4986520;28;20722;-76
2023/05/02 20:53:50;;;;;;;0.50;0.50;;;;;;;7.89;44.82;99611.13;4971772;28;20047;-74
2023/05/02 20:56:17;;;;;;;0.50;0.50;;;;;;;7.90;44.50;99607.38;4989711;28;20132;-75
2023/05/02 20:58:44;;;;;;;0.50;0.50;;;;;;;7.74;44.62;99596.06;4990709;28;20050;-75
2023/05/02 21:01:12;;;;;;;0.50;0.50;;;;;;;7.92;44.61;99619.59;4990751;28;20074;-76
2023/05/02 21:04:02;;;;;;;0.50;0.50;;;;;;;7.86;44.92;99615.06;4985187;28;20085;-75
2023/05/02 21:06:31;;;;;;;0.50;0.50;;;;;;;7.62;45.41;99594.25;4990874;28;20050;-74
2023/05/02 21:09:00;;;;;;;0.50;0.50;;;;;;;7.68;45.47;99604.19;4957118;28;20046;-76
2023/05/02 21:11:33;;;;;;;0.50;0.50;;;;;;;7.63;45.70;99612.84;4990468;28;20145;-77
2023/05/02 21:14:04;;;;;;;0.60;0.60;;;;;;;7.56;45.79;99604.81;4966603;28;20145;-76
2023/05/02 21:16:31;;;;;;;0.60;0.60;;;;;;;7.47;45.84;99600.72;4974695;28;20148;-77
2023/05/02 21:18:59;;;;;;;0.60;0.60;;;;;;;7.48;46.14;99593.47;4979430;28;20045;-78
2023/05/02 21:21:26;;;;;;;0.60;0.60;;;;;;;7.56;45.98;99606.66;5009656;28;20084;-77
2023/05/02 21:23:53;;;;;;;0.60;0.60;;;;;;;7.49;45.68;99593.25;4986734;28;20061;-76
2023/05/02 21:26:23;;;;;;;0.60;0.60;;;;;;;7.56;46.00;99595.94;4974610;28;20057;-75
2023/05/02 21:28:52;;;;;;;0.60;0.60;;;;;;;7.53;46.17;99591.81;4969873;28;20129;-77
2023/05/02 21:31:19;;;;;;;0.50;0.50;;;;;;;7.40;46.37;99589.16;4990141;28;20054;-76
2023/05/02 21:33:46;;;;;;;0.50;0.50;;;;;;;7.36;46.52;99590.59;4984884;28;20050;-76
2023/05/02 21:36:14;;;;;;;0.50;0.50;;;;;;;7.38;46.50;99588.53;4978902;28;20146;-76
2023/05/02 21:38:41;;;;;;;0.60;0.60;;;;;;;7.35;46.62;99589.78;4974266;28;20050;-76
2023/05/02 21:41:08;;;;;;;0.60;0.60;;;;;;;7.33;46.40;99585.66;4961480;28;20051;-75
2023/05/02 21:43:41;;;;;;;0.60;0.60;;;;;;;7.23;46.77;99583.38;4957052;28;20057;-77
2023/05/02 21:46:10;;;;;;;0.65;0.65;;;;;;;7.24;46.86;99581.53;4969956;28;20051;-75
2023/05/02 21:48:42;;;;;;;0.60;0.60;;;;;;;7.23;46.87;99578.00;4970039;28;20061;-75
2023/05/02 21:51:10;;;;;;;0.60;0.60;;;;;;;7.19;47.23;99584.84;4970610;28;20047;-77
2023/05/02 21:53:37;;;;;;;0.60;0.60;;;;;;;7.11;47.29;99577.81;4970098;28;20062;-76
2023/05/02 21:56:08;;;;;;;0.60;0.60;;;;;;;7.13;47.30;99589.16;4973161;28;20077;-77
2023/05/02 21:58:35;;;;;;;0.60;0.60;;;;;;;7.15;47.32;99591.66;4953501;28;20062;-77
2023/05/02 22:01:05;;;;;;;0.60;0.60;;;;;;;7.13;47.33;99591.03;4971828;28;20058;-78
2023/05/02 22:03:33;;;;;;;0.60;0.60;;;;;;;7.10;47.56;99575.34;4968596;28;20477;-78
2023/05/02 22:06:04;;;;;;;0.60;0.60;;;;;;;7.08;47.54;99586.28;4971203;28;20414;-77
2023/05/02 22:08:33;;;;;;;0.50;0.50;;;;;;;7.01;48.11;99581.94;4978937;28;20062;-78
2023/05/02 22:11:09;;;;;;;0.60;0.60;;;;;;;6.90;47.98;99573.50;4980466;28;20616;-77
2023/05/02 22:13:36;;;;;;;0.60;0.60;;;;;;;6.88;48.19;99577.41;4979011;28;20090;-76
2023/05/02 22:16:03;;;;;;;0.50;0.50;;;;;;;6.87;48.30;99571.22;4978755;28;20050;-77
2023/05/02 22:18:35;;;;;;;0.60;0.60;;;;;;;6.87;48.28;99565.03;4978501;28;20154;-77
2023/05/02 22:21:02;;;;;;;0.60;0.60;;;;;;;6.86;48.66;99563.38;4979277;28;20050;-76
2023/05/02 22:23:30;;;;;;;0.60;0.60;;;;;;;6.80;48.64;99565.03;4980399;28;20053;-76
2023/05/02 22:25:57;;;;;;;0.60;0.60;;;;;;;6.71;49.00;99552.88;4971166;28;20054;-77
2023/05/02 22:28:26;;;;;;;0.70;0.70;;;;;;;6.66;49.21;99558.00;4977749;28;20050;-77
2023/05/02 22:30:53;;;;;;;0.70;0.70;;;;;;;6.62;49.48;99551.41;4980356;28;20129;-77
2023/05/02 22:33:20;;;;;;;0.60;0.60;;;;;;;6.66;49.07;99555.31;4961736;28;20059;-76
2023/05/02 22:35:47;;;;;;;0.60;0.60;;;;;;;6.62;49.30;99551.41;4978911;28;20398;-74
2023/05/02 22:38:18;;;;;;;0.60;0.60;;;;;;;6.67;49.32;99554.31;4965706;28;20489;-77
2023/05/02 22:40:45;;;;;;;0.60;0.60;;;;;;;6.60;49.26;99548.94;4982899;28;20140;-76
2023/05/02 22:43:12;;;;;;;0.60;0.60;;;;;;;6.56;49.55;99549.53;4966267;28;20064;-76
2023/05/02 22:45:39;;;;;;;0.70;0.70;;;;;;;6.48;49.72;99551.41;4982179;28;20161;-76
2023/05/02 22:48:06;;;;;;;0.60;0.60;;;;;;;6.50;49.89;99551.19;4982245;28;20096;-75
2023/05/02 22:50:36;;;;;;;0.70;0.70;;;;;;;6.45;49.81;99541.06;4982750;28;20058;-76
2023/05/02 22:53:03;;;;;;;0.60;0.60;;;;;;;6.41;50.07;99545.22;4963015;28;20524;-76
2023/05/02 22:55:30;;;;;;;0.63;0.63;;;;;;;6.35;50.53;99534.47;4974455;28;20054;-76
2023/05/02 22:57:58;;;;;;;0.60;0.60;;;;;;;6.28;50.52;99529.94;4982412;28;20063;-77
2023/05/02 23:00:25;;;;;;;0.60;0.60;;;;;;;6.21;50.98;99523.72;4983494;28;20078;-77
2023/05/02 23:02:52;;;;;;;0.70;0.70;;;;;;;6.22;50.81;99527.22;4984462;28;20054;-76
2023/05/02 23:05:21;;;;;;;0.60;0.60;;;;;;;6.24;50.69;99519.81;4967542;28;20054;-76
2023/05/02 23:07:48;;;;;;;0.70;0.70;;;;;;;6.24;50.28;99517.97;4983659;28;20078;-76
2023/05/02 23:10:16;;;;;;;0.70;0.70;;;;;;;6.20;51.10;99521.25;4983590;28;20058;-76
2023/05/02 23:12:43;;;;;;;0.70;0.70;;;;;;;6.16;51.24;99503.94;4968086;28;20061;-77
2023/05/02 23:15:10;;;;;;;0.70;0.70;;;;;;;6.16;51.30;99506.63;4972385;28;20782;-77